createdAt,value
2022-08-30T00:01:39.757Z,100420.22
2022-08-30T00:06:41.432Z,100422.38
2022-08-30T00:11:43.142Z,100424.75
2022-08-30T00:16:44.718Z,100412.56
2022-08-30T00:21:46.313Z,100411.50
2022-08-30T00:26:47.966Z,100413.34
2022-08-30T00:31:49.689Z,100406.34
2022-08-30T00:36:51.299Z,100419.38
2022-08-30T00:41:52.849Z,100432.97
2022-08-30T00:46:54.427Z,100421.41
2022-08-30T00:51:57.284Z,100420.66
2022-08-30T00:56:59.778Z,100417.16
2022-08-30T01:02:03.573Z,100422.19
2022-08-30T01:07:05.504Z,100415.19
2022-08-30T01:12:07.355Z,100418.72
2022-08-30T01:17:09.571Z,100423.88
2022-08-30T01:22:39.344Z,100414.78
2022-08-30T01:27:48.106Z,100415.25
2022-08-30T01:32:50.641Z,100418.75
2022-08-30T01:37:52.289Z,100416.13
2022-08-30T01:42:54.159Z,100416.06
2022-08-30T01:47:56.223Z,100426.81
2022-08-30T01:53:01.603Z,100425.38
2022-08-30T01:58:03.429Z,100421.94
2022-08-30T02:03:05.937Z,100419.00
2022-08-30T02:08:07.772Z,100430.94
2022-08-30T02:13:09.444Z,100426.44
2022-08-30T02:18:11.084Z,100433.53
2022-08-30T02:23:12.777Z,100420.34
2022-08-30T02:28:15.714Z,100420.22
2022-08-30T02:33:20.724Z,100420.63
2022-08-30T02:38:23.786Z,100424.38
2022-08-30T02:43:25.518Z,100420.94
2022-08-30T02:48:27.084Z,100420.88
2022-08-30T02:53:28.666Z,100418.66
2022-08-30T02:58:30.257Z,100424.09
2022-08-30T03:03:32.349Z,100422.06
2022-08-30T03:08:34.495Z,100433.47
2022-08-30T03:13:36.401Z,100427.25
2022-08-30T03:18:37.990Z,100430.22
2022-08-30T03:23:40.849Z,100425.88
2022-08-30T03:28:43.345Z,100426.44
2022-08-30T03:33:45.022Z,100418.13
2022-08-30T03:38:46.643Z,100417.03
2022-08-30T03:43:48.293Z,100420.06
2022-08-30T03:48:49.970Z,100421.69
2022-08-30T03:53:52.154Z,100414.78
2022-08-30T03:58:53.766Z,100409.63
2022-08-30T04:03:56.643Z,100422.06
2022-08-30T04:08:58.280Z,100416.84
2022-08-30T04:13:59.905Z,100430.84
2022-08-30T04:19:01.753Z,100425.03
2022-08-30T04:24:03.950Z,100427.53
2022-08-30T04:29:05.974Z,100433.81
2022-08-30T04:34:10.088Z,100435.44
2022-08-30T04:39:11.682Z,100438.63
2022-08-30T04:44:15.841Z,100450.47
2022-08-30T04:49:21.665Z,100453.09
2022-08-30T04:54:23.303Z,100448.56
2022-08-30T04:59:24.920Z,100454.09
2022-08-30T05:04:26.673Z,100459.13
2022-08-30T05:09:28.369Z,100456.75
2022-08-30T05:14:30.097Z,100473.56
2022-08-30T05:19:33.693Z,100468.06
2022-08-30T05:24:36.246Z,100475.25
2022-08-30T05:29:37.864Z,100475.25
2022-08-30T05:34:39.535Z,100481.00
2022-08-30T05:39:51.345Z,100488.53
2022-08-30T05:44:54.468Z,100480.16
2022-08-30T05:49:56.325Z,100480.59
2022-08-30T05:55:03.989Z,100477.88
2022-08-30T06:00:13.570Z,100484.69
2022-08-30T06:05:15.818Z,100488.53
2022-08-30T06:10:18.095Z,100487.59
2022-08-30T06:15:19.658Z,100483.75
2022-08-30T06:20:21.316Z,100483.41
2022-08-30T06:25:22.954Z,100485.69
2022-08-30T06:30:24.571Z,100485.69
2022-08-30T06:35:27.504Z,100482.44
2022-08-30T06:40:29.365Z,100487.38
2022-08-30T06:45:31.136Z,100481.72
2022-08-30T06:50:32.863Z,100480.84
2022-08-30T06:55:34.783Z,100470.97
2022-08-30T07:00:36.403Z,100478.00
2022-08-30T07:05:38.368Z,100477.22
2022-08-30T07:10:41.252Z,100477.78
2022-08-30T07:15:44.566Z,100471.19
2022-08-30T07:20:46.414Z,100476.81
2022-08-30T07:25:48.290Z,100494.97
2022-08-30T07:30:50.023Z,100488.34
2022-08-30T07:35:51.664Z,100501.16
2022-08-30T07:40:53.727Z,100515.31
2022-08-30T07:45:57.534Z,100506.91
2022-08-30T07:51:04.531Z,100497.09
2022-08-30T07:56:07.401Z,100499.31
2022-08-30T08:01:11.237Z,100501.13
2022-08-30T08:06:15.185Z,100505.69
2022-08-30T08:11:20.836Z,100501.03
2022-08-30T08:16:25.802Z,100482.00
2022-08-30T08:21:28.174Z,100493.63
2022-08-30T08:26:29.835Z,100496.94
2022-08-30T08:31:33.441Z,100500.09
2022-08-30T08:36:36.502Z,100504.41
2022-08-30T08:42:12.482Z,100493.28
2022-08-30T08:47:26.034Z,100494.59
2022-08-30T08:53:04.388Z,100498.81
2022-08-30T08:58:06.026Z,100495.47
2022-08-30T09:03:13.705Z,100498.50
2022-08-30T09:08:18.940Z,100486.28
2022-08-30T09:13:22.809Z,100493.25
2022-08-30T09:18:45.626Z,100488.91
2022-08-30T09:23:50.452Z,100483.78
2022-08-30T09:28:51.988Z,100485.66
2022-08-30T09:34:08.863Z,100477.94
2022-08-30T09:39:30.427Z,100474.75
2022-08-30T09:44:38.081Z,100481.84
2022-08-30T09:49:45.590Z,100473.56
2022-08-30T09:54:53.188Z,100469.50
2022-08-30T10:00:04.375Z,100459.75
2022-08-30T10:05:18.159Z,100457.16
2022-08-30T10:10:45.777Z,100465.94
2022-08-30T10:16:13.666Z,100463.69
2022-08-30T10:21:21.020Z,100460.88
2022-08-30T10:26:29.997Z,100454.47
2022-08-30T10:31:56.162Z,100458.97
2022-08-30T10:37:03.262Z,100448.84
2022-08-30T10:42:16.451Z,100448.47
2022-08-30T10:47:30.102Z,100456.22
2022-08-30T10:52:54.660Z,100441.81
2022-08-30T10:58:06.599Z,100449.25
2022-08-30T11:03:29.626Z,100443.19
2022-08-30T11:08:46.054Z,100437.97
2022-08-30T11:13:49.697Z,100436.59
2022-08-30T11:18:56.376Z,100436.41
2022-08-30T11:24:03.561Z,100422.72
2022-08-30T11:29:07.773Z,100426.28
2022-08-30T11:34:10.769Z,100430.81
2022-08-30T11:39:33.796Z,100417.81
2022-08-30T11:44:35.459Z,100422.91
2022-08-30T11:49:50.216Z,100416.53
2022-08-30T11:55:10.663Z,100416.16
2022-08-30T12:00:28.713Z,100414.63
2022-08-30T12:05:42.866Z,100406.44
2022-08-30T12:10:54.067Z,100403.06
2022-08-30T12:16:03.628Z,100398.50
2022-08-30T12:21:13.008Z,100394.88
2022-08-30T12:26:17.811Z,100406.66
2022-08-30T12:31:25.882Z,100396.94
2022-08-30T12:37:00.224Z,100393.97
2022-08-30T12:42:36.053Z,100388.66
2022-08-30T12:47:48.050Z,100381.19
2022-08-30T12:53:09.349Z,100378.47
2022-08-30T12:58:15.499Z,100379.50
2022-08-30T13:03:39.627Z,100381.53
2022-08-30T13:08:46.001Z,100369.84
2022-08-30T13:14:01.328Z,100372.44
2022-08-30T13:19:41.509Z,100371.22
2022-08-30T13:24:43.191Z,100370.22
2022-08-30T13:29:45.009Z,100374.88
2022-08-30T13:34:46.620Z,100383.09
2022-08-30T13:39:51.326Z,100367.19
2022-08-30T13:44:54.039Z,100367.56
2022-08-30T13:49:56.130Z,100363.91
2022-08-30T13:54:58.322Z,100369.63
2022-08-30T14:00:00.239Z,100363.44
2022-08-30T14:05:03.206Z,100364.75
2022-08-30T14:15:27.984Z,100357.41
2022-08-30T14:20:29.678Z,100352.88
2022-08-30T14:25:31.333Z,100355.22
2022-08-30T14:30:33.357Z,100355.25
2022-08-30T14:35:35.917Z,100356.38
2022-08-30T14:40:37.610Z,100346.69
2022-08-30T14:45:39.657Z,100351.72
2022-08-30T14:50:41.398Z,100350.00
2022-08-30T14:55:43.308Z,100350.34
2022-08-30T15:00:52.611Z,100341.59
2022-08-30T15:05:54.370Z,100339.75
2022-08-30T15:10:56.109Z,100338.81
2022-08-30T15:15:57.730Z,100332.06
2022-08-30T15:20:59.409Z,100334.88
2022-08-30T15:26:01.465Z,100335.72
2022-08-30T15:31:08.740Z,100326.22
2022-08-30T15:36:12.080Z,100336.91
2022-08-30T15:41:14.090Z,100325.22
2022-08-30T15:46:32.337Z,100331.75
2022-08-30T15:51:41.233Z,100325.88
2022-08-30T15:56:44.826Z,100328.00
2022-08-30T16:01:47.793Z,100329.56
2022-08-30T16:06:49.685Z,100340.53
2022-08-30T16:11:51.312Z,100336.16
2022-08-30T16:16:52.884Z,100332.59
2022-08-30T16:21:54.523Z,100334.28
2022-08-30T16:26:56.756Z,100319.50
2022-08-30T16:31:58.616Z,100317.34
2022-08-30T16:37:00.256Z,100321.38
2022-08-30T16:42:03.302Z,100318.75
2022-08-30T16:47:09.088Z,100324.09
2022-08-30T16:52:14.445Z,100311.69
2022-08-30T16:57:16.194Z,100307.53
2022-08-30T17:02:17.906Z,100305.38
2022-08-30T17:07:21.517Z,100314.53
2022-08-30T17:12:24.669Z,100316.69
2022-08-30T17:17:27.812Z,100323.22
2022-08-30T17:22:31.312Z,100323.22
2022-08-30T17:27:33.794Z,100324.91
2022-08-30T17:32:35.470Z,100327.78
2022-08-30T17:37:37.071Z,100336.59
2022-08-30T17:42:40.964Z,100341.75
2022-08-30T17:47:47.077Z,100340.88
2022-08-30T18:04:55.506Z,100365.28
2022-08-30T18:09:57.280Z,100358.44
2022-08-30T18:15:00.486Z,100364.19
2022-08-30T18:20:02.608Z,100358.53
2022-08-30T18:25:05.763Z,100362.75
2022-08-30T18:30:11.438Z,100365.53
2022-08-30T18:35:14.059Z,100366.41
2022-08-30T18:40:18.661Z,100372.41
2022-08-30T18:45:20.675Z,100382.88
2022-08-30T18:50:22.645Z,100391.44
2022-08-30T18:55:26.926Z,100393.41
2022-08-30T19:00:29.780Z,100394.63
2022-08-30T19:05:31.724Z,100401.66
2022-08-30T19:10:35.833Z,100405.81
2022-08-30T19:15:37.665Z,100395.63
2022-08-30T19:20:39.425Z,100392.69
2022-08-30T19:25:43.931Z,100403.06
2022-08-30T19:30:45.549Z,100402.16
2022-08-30T19:35:51.195Z,100400.91
2022-08-30T19:40:59.005Z,100404.94
2022-08-30T19:46:00.715Z,100397.28
2022-08-30T19:51:10.161Z,100402.88
2022-08-30T19:56:12.594Z,100400.91
2022-08-30T20:01:32.494Z,100404.94
2022-08-30T20:06:35.943Z,100404.56
2022-08-30T20:11:39.082Z,100403.84
2022-08-30T20:16:42.550Z,100396.78
2022-08-30T20:21:48.016Z,100401.63
2022-08-30T20:26:51.783Z,100397.66
2022-08-30T20:31:53.403Z,100397.97
2022-08-30T20:36:56.189Z,100413.97
2022-08-30T20:41:58.270Z,100404.72
2022-08-30T20:46:59.930Z,100407.59
2022-08-30T20:52:01.551Z,100418.53
2022-08-30T20:57:07.121Z,100419.03
2022-08-30T21:02:08.880Z,100427.84
2022-08-30T21:07:12.600Z,100430.91
2022-08-30T21:12:14.226Z,100433.13
2022-08-30T21:17:16.152Z,100429.53
2022-08-30T21:22:17.748Z,100421.63
2022-08-30T21:27:21.335Z,100426.41
2022-08-30T21:32:22.967Z,100417.50
2022-08-30T21:37:24.717Z,100426.91
2022-08-30T21:42:26.963Z,100421.16
2022-08-30T21:47:28.624Z,100422.81
2022-08-30T21:52:30.611Z,100432.41
2022-08-30T21:57:32.939Z,100434.63
2022-08-30T22:02:34.664Z,100435.81
2022-08-30T22:07:37.440Z,100440.81
2022-08-30T22:12:39.525Z,100442.50
2022-08-30T22:17:43.669Z,100443.81
2022-08-30T22:22:45.409Z,100452.84
2022-08-30T22:27:47.017Z,100453.00
2022-08-30T22:32:48.780Z,100440.97
2022-08-30T22:37:53.398Z,100433.25
2022-08-30T22:42:55.351Z,100435.59
2022-08-30T22:47:56.977Z,100441.72
2022-08-30T22:52:59.254Z,100451.22
2022-08-30T22:58:00.805Z,100461.63
2022-08-30T23:03:02.448Z,100460.06
2022-08-30T23:08:05.592Z,100467.59
2022-08-30T23:13:07.316Z,100461.66
2022-08-30T23:18:08.905Z,100468.63
2022-08-30T23:23:10.458Z,100459.56
2022-08-30T23:28:30.575Z,100451.88
2022-08-30T23:33:50.860Z,100451.56
2022-08-30T23:39:11.028Z,100449.09
2022-08-30T23:44:31.418Z,100454.28
2022-08-30T23:49:52.028Z,100449.94
2022-08-30T23:55:12.235Z,100450.88
